sensor_id;sensor_type;location;lat;lon;timestamp;P1;durP1;ratioP1;P2;durP2;ratioP2
43807;SDS011;29438;50.664;10.098;2023-04-15T00:02:22;8.00;;;3.53;;
43807;SDS011;29438;50.664;10.098;2023-04-15T00:04:47;9.43;;;3.40;;
43807;SDS011;29438;50.664;10.098;2023-04-15T00:07:13;8.60;;;3.80;;
43807;SDS011;29438;50.664;10.098;2023-04-15T00:09:40;9.10;;;4.10;;
43807;SDS011;29438;50.664;10.098;2023-04-15T00:12:06;9.77;;;4.00;;
43807;SDS011;29438;50.664;10.098;2023-04-15T00:14:32;8.68;;;4.05;;
43807;SDS011;29438;50.664;10.098;2023-04-15T00:16:59;10.15;;;4.50;;
43807;SDS011;29438;50.664;10.098;2023-04-15T00:19:25;10.85;;;4.00;;
43807;SDS011;29438;50.664;10.098;2023-04-15T00:21:50;8.48;;;3.92;;
43807;SDS011;29438;50.664;10.098;2023-04-15T00:24:16;11.23;;;4.50;;
43807;SDS011;29438;50.664;10.098;2023-04-15T00:26:41;10.70;;;4.65;;
43807;SDS011;29438;50.664;10.098;2023-04-15T00:29:07;9.95;;;4.47;;
43807;SDS011;29438;50.664;10.098;2023-04-15T00:31:33;9.48;;;4.20;;
43807;SDS011;29438;50.664;10.098;2023-04-15T00:33:58;7.70;;;4.15;;
43807;SDS011;29438;50.664;10.098;2023-04-15T00:36:24;10.38;;;4.30;;
43807;SDS011;29438;50.664;10.098;2023-04-15T00:38:50;10.80;;;4.30;;
43807;SDS011;29438;50.664;10.098;2023-04-15T00:41:15;12.13;;;5.00;;
43807;SDS011;29438;50.664;10.098;2023-04-15T00:43:43;11.40;;;4.60;;
43807;SDS011;29438;50.664;10.098;2023-04-15T00:46:08;13.63;;;5.40;;
43807;SDS011;29438;50.664;10.098;2023-04-15T00:48:36;13.48;;;5.05;;
43807;SDS011;29438;50.664;10.098;2023-04-15T00:51:02;12.95;;;5.22;;
43807;SDS011;29438;50.664;10.098;2023-04-15T00:53:28;10.60;;;4.80;;
43807;SDS011;29438;50.664;10.098;2023-04-15T00:55:54;9.93;;;4.53;;
43807;SDS011;29438;50.664;10.098;2023-04-15T00:58:20;11.38;;;4.63;;
43807;SDS011;29438;50.664;10.098;2023-04-15T01:00:45;9.52;;;4.40;;
43807;SDS011;29438;50.664;10.098;2023-04-15T01:03:11;11.02;;;4.65;;
43807;SDS011;29438;50.664;10.098;2023-04-15T01:05:37;10.35;;;4.30;;
43807;SDS011;29438;50.664;10.098;2023-04-15T01:08:03;12.95;;;5.05;;
43807;SDS011;29438;50.664;10.098;2023-04-15T01:10:29;11.05;;;4.80;;
43807;SDS011;29438;50.664;10.098;2023-04-15T01:12:55;12.45;;;5.63;;
43807;SDS011;29438;50.664;10.098;2023-04-15T01:15:21;11.35;;;5.20;;
43807;SDS011;29438;50.664;10.098;2023-04-15T01:17:47;11.48;;;5.05;;
43807;SDS011;29438;50.664;10.098;2023-04-15T01:20:13;12.93;;;5.38;;
43807;SDS011;29438;50.664;10.098;2023-04-15T01:22:40;13.10;;;5.70;;
43807;SDS011;29438;50.664;10.098;2023-04-15T01:25:10;10.90;;;5.13;;
43807;SDS011;29438;50.664;10.098;2023-04-15T01:27:41;12.77;;;5.78;;
43807;SDS011;29438;50.664;10.098;2023-04-15T01:30:07;12.52;;;6.00;;
43807;SDS011;29438;50.664;10.098;2023-04-15T01:32:34;11.52;;;5.80;;
43807;SDS011;29438;50.664;10.098;2023-04-15T01:35:00;12.77;;;5.65;;
43807;SDS011;29438;50.664;10.098;2023-04-15T01:37:26;10.35;;;5.25;;
43807;SDS011;29438;50.664;10.098;2023-04-15T01:39:51;10.18;;;5.13;;
43807;SDS011;29438;50.664;10.098;2023-04-15T01:42:17;13.02;;;6.07;;
43807;SDS011;29438;50.664;10.098;2023-04-15T01:44:42;12.38;;;6.18;;
43807;SDS011;29438;50.664;10.098;2023-04-15T01:47:08;14.90;;;6.70;;
43807;SDS011;29438;50.664;10.098;2023-04-15T01:49:33;13.82;;;6.60;;
43807;SDS011;29438;50.664;10.098;2023-04-15T01:51:59;15.35;;;6.57;;
43807;SDS011;29438;50.664;10.098;2023-04-15T01:54:25;14.55;;;6.60;;
43807;SDS011;29438;50.664;10.098;2023-04-15T01:56:51;12.65;;;5.53;;
43807;SDS011;29438;50.664;10.098;2023-04-15T01:59:17;12.80;;;5.95;;
43807;SDS011;29438;50.664;10.098;2023-04-15T02:01:43;13.00;;;6.25;;
43807;SDS011;29438;50.664;10.098;2023-04-15T02:04:09;13.95;;;5.88;;
43807;SDS011;29438;50.664;10.098;2023-04-15T02:06:40;11.82;;;5.22;;
43807;SDS011;29438;50.664;10.098;2023-04-15T02:09:09;14.60;;;6.55;;
43807;SDS011;29438;50.664;10.098;2023-04-15T02:11:34;14.73;;;6.53;;
43807;SDS011;29438;50.664;10.098;2023-04-15T02:14:01;15.45;;;6.80;;
43807;SDS011;29438;50.664;10.098;2023-04-15T02:16:28;12.23;;;6.28;;
43807;SDS011;29438;50.664;10.098;2023-04-15T02:18:54;12.18;;;6.25;;
43807;SDS011;29438;50.664;10.098;2023-04-15T02:21:20;13.98;;;6.78;;
43807;SDS011;29438;50.664;10.098;2023-04-15T02:23:45;17.35;;;7.05;;
43807;SDS011;29438;50.664;10.098;2023-04-15T02:26:12;15.98;;;7.35;;
43807;SDS011;29438;50.664;10.098;2023-04-15T02:28:38;14.70;;;5.95;;
43807;SDS011;29438;50.664;10.098;2023-04-15T02:31:04;14.85;;;7.03;;
43807;SDS011;29438;50.664;10.098;2023-04-15T02:33:30;14.30;;;6.32;;
43807;SDS011;29438;50.664;10.098;2023-04-15T02:35:56;15.38;;;7.45;;
43807;SDS011;29438;50.664;10.098;2023-04-15T02:38:23;15.02;;;7.03;;
43807;SDS011;29438;50.664;10.098;2023-04-15T02:40:48;15.82;;;7.50;;
43807;SDS011;29438;50.664;10.098;2023-04-15T02:43:14;17.23;;;7.50;;
43807;SDS011;29438;50.664;10.098;2023-04-15T02:45:41;17.25;;;7.10;;
43807;SDS011;29438;50.664;10.098;2023-04-15T02:48:07;14.88;;;6.80;;
43807;SDS011;29438;50.664;10.098;2023-04-15T02:50:33;14.73;;;6.68;;
43807;SDS011;29438;50.664;10.098;2023-04-15T02:52:59;13.55;;;7.30;;
43807;SDS011;29438;50.664;10.098;2023-04-15T02:55:25;14.38;;;6.07;;
43807;SDS011;29438;50.664;10.098;2023-04-15T02:57:51;12.82;;;6.18;;
43807;SDS011;29438;50.664;10.098;2023-04-15T03:00:16;11.98;;;6.15;;
43807;SDS011;29438;50.664;10.098;2023-04-15T03:02:43;14.98;;;6.97;;
43807;SDS011;29438;50.664;10.098;2023-04-15T03:05:10;14.77;;;6.57;;
43807;SDS011;29438;50.664;10.098;2023-04-15T03:07:37;13.95;;;5.95;;
43807;SDS011;29438;50.664;10.098;2023-04-15T03:10:04;13.57;;;6.63;;
43807;SDS011;29438;50.664;10.098;2023-04-15T03:12:30;14.45;;;6.60;;
43807;SDS011;29438;50.664;10.098;2023-04-15T03:14:55;14.98;;;6.05;;
43807;SDS011;29438;50.664;10.098;2023-04-15T03:17:21;12.80;;;6.18;;
43807;SDS011;29438;50.664;10.098;2023-04-15T03:19:46;13.18;;;6.38;;
43807;SDS011;29438;50.664;10.098;2023-04-15T03:22:12;10.85;;;5.75;;
43807;SDS011;29438;50.664;10.098;2023-04-15T03:24:37;13.45;;;6.10;;
43807;SDS011;29438;50.664;10.098;2023-04-15T03:27:03;10.70;;;5.72;;
43807;SDS011;29438;50.664;10.098;2023-04-15T03:29:30;12.55;;;5.43;;
43807;SDS011;29438;50.664;10.098;2023-04-15T03:31:55;13.25;;;6.07;;
43807;SDS011;29438;50.664;10.098;2023-04-15T03:34:21;12.57;;;5.30;;
43807;SDS011;29438;50.664;10.098;2023-04-15T03:36:46;13.85;;;6.40;;
43807;SDS011;29438;50.664;10.098;2023-04-15T03:39:12;11.73;;;5.97;;
43807;SDS011;29438;50.664;10.098;2023-04-15T03:41:37;14.10;;;6.25;;
43807;SDS011;29438;50.664;10.098;2023-04-15T03:44:03;15.48;;;6.97;;
43807;SDS011;29438;50.664;10.098;2023-04-15T03:46:29;13.82;;;7.10;;
43807;SDS011;29438;50.664;10.098;2023-04-15T03:48:54;14.98;;;6.63;;
43807;SDS011;29438;50.664;10.098;2023-04-15T03:51:20;13.65;;;6.50;;
43807;SDS011;29438;50.664;10.098;2023-04-15T03:53:46;13.40;;;6.85;;
43807;SDS011;29438;50.664;10.098;2023-04-15T03:56:11;13.40;;;5.93;;
43807;SDS011;29438;50.664;10.098;2023-04-15T03:58:37;12.40;;;6.18;;
43807;SDS011;29438;50.664;10.098;2023-04-15T04:01:02;11.68;;;5.90;;
43807;SDS011;29438;50.664;10.098;2023-04-15T04:03:28;13.15;;;6.43;;
43807;SDS011;29438;50.664;10.098;2023-04-15T04:05:53;12.80;;;5.80;;
43807;SDS011;29438;50.664;10.098;2023-04-15T04:08:20;12.43;;;6.00;;
43807;SDS011;29438;50.664;10.098;2023-04-15T04:10:46;12.77;;;5.85;;
43807;SDS011;29438;50.664;10.098;2023-04-15T04:13:11;14.18;;;6.05;;
43807;SDS011;29438;50.664;10.098;2023-04-15T04:15:37;12.48;;;5.95;;
43807;SDS011;29438;50.664;10.098;2023-04-15T04:18:02;14.25;;;6.40;;
43807;SDS011;29438;50.664;10.098;2023-04-15T04:20:28;14.55;;;6.30;;
43807;SDS011;29438;50.664;10.098;2023-04-15T04:22:55;12.93;;;5.65;;
43807;SDS011;29438;50.664;10.098;2023-04-15T04:25:21;15.73;;;6.45;;
43807;SDS011;29438;50.664;10.098;2023-04-15T04:27:47;12.60;;;6.35;;
43807;SDS011;29438;50.664;10.098;2023-04-15T04:30:12;14.85;;;6.93;;
43807;SDS011;29438;50.664;10.098;2023-04-15T04:32:38;14.45;;;6.32;;
43807;SDS011;29438;50.664;10.098;2023-04-15T04:35:03;14.98;;;6.95;;
43807;SDS011;29438;50.664;10.098;2023-04-15T04:37:29;12.43;;;6.25;;
43807;SDS011;29438;50.664;10.098;2023-04-15T04:39:55;15.93;;;6.90;;
43807;SDS011;29438;50.664;10.098;2023-04-15T04:42:20;13.13;;;6.40;;
43807;SDS011;29438;50.664;10.098;2023-04-15T04:44:46;17.50;;;7.15;;
43807;SDS011;29438;50.664;10.098;2023-04-15T04:47:11;13.20;;;6.68;;
43807;SDS011;29438;50.664;10.098;2023-04-15T04:49:37;14.77;;;6.25;;
43807;SDS011;29438;50.664;10.098;2023-04-15T04:52:03;13.82;;;6.25;;
43807;SDS011;29438;50.664;10.098;2023-04-15T04:54:29;15.20;;;6.35;;
43807;SDS011;29438;50.664;10.098;2023-04-15T04:56:55;14.15;;;6.50;;
43807;SDS011;29438;50.664;10.098;2023-04-15T04:59:21;13.75;;;6.45;;
43807;SDS011;29438;50.664;10.098;2023-04-15T05:01:47;12.90;;;6.07;;
43807;SDS011;29438;50.664;10.098;2023-04-15T05:04:13;13.55;;;6.47;;
43807;SDS011;29438;50.664;10.098;2023-04-15T05:06:38;13.68;;;6.55;;
43807;SDS011;29438;50.664;10.098;2023-04-15T05:09:04;15.60;;;6.47;;
43807;SDS011;29438;50.664;10.098;2023-04-15T05:11:29;15.70;;;6.75;;
43807;SDS011;29438;50.664;10.098;2023-04-15T05:13:55;15.68;;;6.90;;
43807;SDS011;29438;50.664;10.098;2023-04-15T05:16:22;14.70;;;6.40;;
43807;SDS011;29438;50.664;10.098;2023-04-15T05:18:47;12.95;;;6.55;;
43807;SDS011;29438;50.664;10.098;2023-04-15T05:21:13;14.75;;;6.90;;
43807;SDS011;29438;50.664;10.098;2023-04-15T05:23:38;14.57;;;6.57;;
43807;SDS011;29438;50.664;10.098;2023-04-15T05:26:04;13.95;;;7.00;;
43807;SDS011;29438;50.664;10.098;2023-04-15T05:28:30;18.55;;;7.43;;
43807;SDS011;29438;50.664;10.098;2023-04-15T05:30:56;15.45;;;7.38;;
43807;SDS011;29438;50.664;10.098;2023-04-15T05:33:21;17.00;;;6.53;;
43807;SDS011;29438;50.664;10.098;2023-04-15T05:35:47;15.68;;;7.53;;
43807;SDS011;29438;50.664;10.098;2023-04-15T05:38:12;18.10;;;7.78;;
43807;SDS011;29438;50.664;10.098;2023-04-15T05:40:38;17.33;;;7.95;;
43807;SDS011;29438;50.664;10.098;2023-04-15T05:43:03;17.63;;;7.65;;
43807;SDS011;29438;50.664;10.098;2023-04-15T05:45:30;17.33;;;7.75;;
43807;SDS011;29438;50.664;10.098;2023-04-15T05:47:55;17.85;;;7.10;;
43807;SDS011;29438;50.664;10.098;2023-04-15T05:50:21;16.73;;;7.60;;
43807;SDS011;29438;50.664;10.098;2023-04-15T05:52:46;17.25;;;8.15;;
43807;SDS011;29438;50.664;10.098;2023-04-15T05:55:12;17.88;;;7.57;;
43807;SDS011;29438;50.664;10.098;2023-04-15T05:57:38;17.95;;;7.97;;
43807;SDS011;29438;50.664;10.098;2023-04-15T06:00:04;15.80;;;7.60;;
43807;SDS011;29438;50.664;10.098;2023-04-15T06:02:30;16.92;;;8.85;;
43807;SDS011;29438;50.664;10.098;2023-04-15T06:04:56;17.15;;;7.57;;
43807;SDS011;29438;50.664;10.098;2023-04-15T06:07:21;11.10;;;5.25;;
43807;SDS011;29438;50.664;10.098;2023-04-15T06:09:47;15.48;;;7.63;;
43807;SDS011;29438;50.664;10.098;2023-04-15T06:12:13;16.38;;;7.93;;
43807;SDS011;29438;50.664;10.098;2023-04-15T06:14:39;16.02;;;7.60;;
43807;SDS011;29438;50.664;10.098;2023-04-15T06:17:05;12.85;;;6.50;;
43807;SDS011;29438;50.664;10.098;2023-04-15T06:19:30;13.98;;;6.80;;
43807;SDS011;29438;50.664;10.098;2023-04-15T06:21:56;15.32;;;7.80;;
43807;SDS011;29438;50.664;10.098;2023-04-15T06:24:22;14.32;;;6.53;;
43807;SDS011;29438;50.664;10.098;2023-04-15T06:26:48;12.35;;;5.82;;
43807;SDS011;29438;50.664;10.098;2023-04-15T06:29:14;14.57;;;6.50;;
43807;SDS011;29438;50.664;10.098;2023-04-15T06:31:40;13.50;;;6.63;;
43807;SDS011;29438;50.664;10.098;2023-04-15T06:34:05;12.85;;;6.03;;
43807;SDS011;29438;50.664;10.098;2023-04-15T06:36:31;14.23;;;7.38;;
43807;SDS011;29438;50.664;10.098;2023-04-15T06:38:57;14.05;;;6.53;;
43807;SDS011;29438;50.664;10.098;2023-04-15T06:41:22;10.25;;;4.68;;
43807;SDS011;29438;50.664;10.098;2023-04-15T06:43:48;13.88;;;6.50;;
43807;SDS011;29438;50.664;10.098;2023-04-15T06:46:13;12.55;;;6.15;;
43807;SDS011;29438;50.664;10.098;2023-04-15T06:48:39;11.68;;;4.93;;
43807;SDS011;29438;50.664;10.098;2023-04-15T06:51:05;14.90;;;6.57;;
43807;SDS011;29438;50.664;10.098;2023-04-15T06:53:30;12.93;;;5.97;;
43807;SDS011;29438;50.664;10.098;2023-04-15T06:55:56;12.25;;;6.10;;
43807;SDS011;29438;50.664;10.098;2023-04-15T06:58:22;11.27;;;5.90;;
43807;SDS011;29438;50.664;10.098;2023-04-15T07:00:47;10.90;;;5.38;;
43807;SDS011;29438;50.664;10.098;2023-04-15T07:03:13;14.82;;;5.65;;
43807;SDS011;29438;50.664;10.098;2023-04-15T07:05:39;11.98;;;5.75;;
43807;SDS011;29438;50.664;10.098;2023-04-15T07:08:05;10.90;;;5.65;;
43807;SDS011;29438;50.664;10.098;2023-04-15T07:10:32;10.60;;;5.05;;
43807;SDS011;29438;50.664;10.098;2023-04-15T07:12:57;11.45;;;5.78;;
43807;SDS011;29438;50.664;10.098;2023-04-15T07:15:23;10.68;;;5.30;;
43807;SDS011;29438;50.664;10.098;2023-04-15T07:17:49;11.75;;;6.10;;
43807;SDS011;29438;50.664;10.098;2023-04-15T07:20:14;12.65;;;6.30;;
43807;SDS011;29438;50.664;10.098;2023-04-15T07:22:40;11.75;;;6.03;;
43807;SDS011;29438;50.664;10.098;2023-04-15T07:25:05;10.93;;;5.20;;
43807;SDS011;29438;50.664;10.098;2023-04-15T07:27:31;10.75;;;5.65;;
43807;SDS011;29438;50.664;10.098;2023-04-15T07:29:57;10.38;;;5.00;;
43807;SDS011;29438;50.664;10.098;2023-04-15T07:32:23;12.18;;;6.20;;
43807;SDS011;29438;50.664;10.098;2023-04-15T07:34:48;11.98;;;5.32;;
43807;SDS011;29438;50.664;10.098;2023-04-15T07:37:14;11.23;;;5.60;;
43807;SDS011;29438;50.664;10.098;2023-04-15T07:39:39;12.23;;;5.95;;
43807;SDS011;29438;50.664;10.098;2023-04-15T07:42:05;12.55;;;5.07;;
43807;SDS011;29438;50.664;10.098;2023-04-15T07:44:31;11.98;;;5.70;;
43807;SDS011;29438;50.664;10.098;2023-04-15T07:46:56;11.82;;;4.75;;
43807;SDS011;29438;50.664;10.098;2023-04-15T07:49:22;10.63;;;5.13;;
43807;SDS011;29438;50.664;10.098;2023-04-15T07:51:48;12.68;;;5.80;;
43807;SDS011;29438;50.664;10.098;2023-04-15T07:54:14;10.30;;;5.45;;
43807;SDS011;29438;50.664;10.098;2023-04-15T07:56:40;10.50;;;5.40;;
43807;SDS011;29438;50.664;10.098;2023-04-15T07:59:05;10.88;;;5.05;;
43807;SDS011;29438;50.664;10.098;2023-04-15T08:01:31;11.15;;;4.63;;
43807;SDS011;29438;50.664;10.098;2023-04-15T08:03:57;8.88;;;4.03;;
43807;SDS011;29438;50.664;10.098;2023-04-15T08:06:23;8.90;;;4.18;;
43807;SDS011;29438;50.664;10.098;2023-04-15T08:08:48;10.20;;;3.88;;
43807;SDS011;29438;50.664;10.098;2023-04-15T08:11:14;8.80;;;4.03;;
43807;SDS011;29438;50.664;10.098;2023-04-15T08:13:40;9.73;;;3.92;;
43807;SDS011;29438;50.664;10.098;2023-04-15T08:16:21;11.90;;;4.20;;
43807;SDS011;29438;50.664;10.098;2023-04-15T08:18:48;9.73;;;4.40;;
43807;SDS011;29438;50.664;10.098;2023-04-15T08:21:16;8.27;;;3.90;;
43807;SDS011;29438;50.664;10.098;2023-04-15T08:23:43;8.15;;;4.00;;
43807;SDS011;29438;50.664;10.098;2023-04-15T08:26:09;8.57;;;3.88;;
43807;SDS011;29438;50.664;10.098;2023-04-15T08:28:37;9.23;;;4.53;;
43807;SDS011;29438;50.664;10.098;2023-04-15T08:31:04;8.95;;;4.30;;
43807;SDS011;29438;50.664;10.098;2023-04-15T08:33:30;8.65;;;3.60;;
43807;SDS011;29438;50.664;10.098;2023-04-15T08:35:55;9.00;;;4.07;;
43807;SDS011;29438;50.664;10.098;2023-04-15T08:38:21;9.25;;;3.80;;
43807;SDS011;29438;50.664;10.098;2023-04-15T08:40:47;7.18;;;3.30;;
43807;SDS011;29438;50.664;10.098;2023-04-15T08:43:23;8.23;;;3.78;;
43807;SDS011;29438;50.664;10.098;2023-04-15T08:45:52;7.28;;;3.50;;
43807;SDS011;29438;50.664;10.098;2023-04-15T08:48:19;8.23;;;3.75;;
43807;SDS011;29438;50.664;10.098;2023-04-15T08:54:12;8.93;;;3.85;;
43807;SDS011;29438;50.664;10.098;2023-04-15T08:56:38;7.63;;;3.38;;
43807;SDS011;29438;50.664;10.098;2023-04-15T08:59:04;11.95;;;5.03;;
43807;SDS011;29438;50.664;10.098;2023-04-15T09:01:31;8.27;;;2.80;;
43807;SDS011;29438;50.664;10.098;2023-04-15T09:03:57;7.47;;;3.05;;
43807;SDS011;29438;50.664;10.098;2023-04-15T09:06:23;6.22;;;2.70;;
43807;SDS011;29438;50.664;10.098;2023-04-15T09:08:50;5.70;;;2.80;;
43807;SDS011;29438;50.664;10.098;2023-04-15T09:11:16;6.30;;;2.80;;
43807;SDS011;29438;50.664;10.098;2023-04-15T09:13:42;6.43;;;3.08;;
43807;SDS011;29438;50.664;10.098;2023-04-15T09:16:07;5.40;;;2.55;;
43807;SDS011;29438;50.664;10.098;2023-04-15T09:18:34;7.85;;;2.72;;
43807;SDS011;29438;50.664;10.098;2023-04-15T09:23:35;6.22;;;2.80;;
43807;SDS011;29438;50.664;10.098;2023-04-15T09:26:01;6.57;;;2.88;;
43807;SDS011;29438;50.664;10.098;2023-04-15T09:28:27;8.15;;;2.50;;
43807;SDS011;29438;50.664;10.098;2023-04-15T09:30:57;7.10;;;2.50;;
43807;SDS011;29438;50.664;10.098;2023-04-15T09:33:24;6.03;;;2.47;;
43807;SDS011;29438;50.664;10.098;2023-04-15T09:36:03;5.90;;;2.75;;
43807;SDS011;29438;50.664;10.098;2023-04-15T09:38:29;5.10;;;2.38;;
43807;SDS011;29438;50.664;10.098;2023-04-15T09:40:56;5.05;;;2.25;;
43807;SDS011;29438;50.664;10.098;2023-04-15T09:43:22;6.10;;;2.40;;
43807;SDS011;29438;50.664;10.098;2023-04-15T09:46:00;5.88;;;2.55;;
43807;SDS011;29438;50.664;10.098;2023-04-15T09:48:26;5.80;;;2.30;;
43807;SDS011;29438;50.664;10.098;2023-04-15T09:50:53;5.70;;;2.47;;
43807;SDS011;29438;50.664;10.098;2023-04-15T09:53:22;6.22;;;2.85;;
43807;SDS011;29438;50.664;10.098;2023-04-15T09:55:50;5.25;;;2.33;;
43807;SDS011;29438;50.664;10.098;2023-04-15T09:58:26;5.90;;;2.78;;
43807;SDS011;29438;50.664;10.098;2023-04-15T10:00:53;4.85;;;1.85;;
43807;SDS011;29438;50.664;10.098;2023-04-15T10:03:28;5.20;;;2.03;;
43807;SDS011;29438;50.664;10.098;2023-04-15T10:05:55;4.13;;;2.03;;
43807;SDS011;29438;50.664;10.098;2023-04-15T10:08:23;4.22;;;1.70;;
43807;SDS011;29438;50.664;10.098;2023-04-15T10:10:51;6.03;;;2.28;;
43807;SDS011;29438;50.664;10.098;2023-04-15T10:13:18;4.18;;;1.77;;
43807;SDS011;29438;50.664;10.098;2023-04-15T10:15:50;5.63;;;2.40;;
43807;SDS011;29438;50.664;10.098;2023-04-15T10:18:21;4.57;;;2.05;;
43807;SDS011;29438;50.664;10.098;2023-04-15T10:20:49;5.22;;;2.00;;
43807;SDS011;29438;50.664;10.098;2023-04-15T10:23:15;6.00;;;2.15;;
43807;SDS011;29438;50.664;10.098;2023-04-15T10:25:42;5.50;;;2.22;;
43807;SDS011;29438;50.664;10.098;2023-04-15T10:28:09;5.22;;;1.90;;
43807;SDS011;29438;50.664;10.098;2023-04-15T10:30:35;4.68;;;1.98;;
43807;SDS011;29438;50.664;10.098;2023-04-15T10:33:01;4.60;;;1.83;;
43807;SDS011;29438;50.664;10.098;2023-04-15T10:35:29;5.28;;;1.70;;
43807;SDS011;29438;50.664;10.098;2023-04-15T10:37:56;4.10;;;1.60;;
43807;SDS011;29438;50.664;10.098;2023-04-15T10:40:23;3.90;;;1.63;;
43807;SDS011;29438;50.664;10.098;2023-04-15T10:42:55;3.42;;;1.45;;
43807;SDS011;29438;50.664;10.098;2023-04-15T10:45:24;3.47;;;1.52;;
43807;SDS011;29438;50.664;10.098;2023-04-15T10:47:53;4.50;;;1.38;;
43807;SDS011;29438;50.664;10.098;2023-04-15T10:50:19;3.80;;;1.50;;
43807;SDS011;29438;50.664;10.098;2023-04-15T10:52:45;3.65;;;1.50;;
43807;SDS011;29438;50.664;10.098;2023-04-15T10:55:24;3.08;;;1.20;;
43807;SDS011;29438;50.664;10.098;2023-04-15T10:57:55;3.40;;;1.25;;
43807;SDS011;29438;50.664;10.098;2023-04-15T11:00:25;4.00;;;1.30;;
43807;SDS011;29438;50.664;10.098;2023-04-15T11:08:06;3.50;;;1.25;;
43807;SDS011;29438;50.664;10.098;2023-04-15T11:12:59;3.53;;;1.35;;
43807;SDS011;29438;50.664;10.098;2023-04-15T11:17:58;3.42;;;1.23;;
43807;SDS011;29438;50.664;10.098;2023-04-15T11:20:39;2.58;;;1.00;;
43807;SDS011;29438;50.664;10.098;2023-04-15T11:23:06;2.47;;;1.10;;
43807;SDS011;29438;50.664;10.098;2023-04-15T11:25:33;2.85;;;1.15;;
43807;SDS011;29438;50.664;10.098;2023-04-15T11:28:01;3.10;;;1.00;;
43807;SDS011;29438;50.664;10.098;2023-04-15T11:30:28;2.65;;;1.02;;
43807;SDS011;29438;50.664;10.098;2023-04-15T11:33:00;3.20;;;1.27;;
43807;SDS011;29438;50.664;10.098;2023-04-15T11:35:27;2.17;;;0.85;;
43807;SDS011;29438;50.664;10.098;2023-04-15T11:37:53;3.15;;;1.10;;
43807;SDS011;29438;50.664;10.098;2023-04-15T11:40:25;2.50;;;0.80;;
43807;SDS011;29438;50.664;10.098;2023-04-15T11:45:58;2.53;;;0.90;;
43807;SDS011;29438;50.664;10.098;2023-04-15T11:48:32;1.92;;;0.60;;
43807;SDS011;29438;50.664;10.098;2023-04-15T11:51:00;2.33;;;0.90;;
43807;SDS011;29438;50.664;10.098;2023-04-15T11:53:46;2.08;;;0.73;;
43807;SDS011;29438;50.664;10.098;2023-04-15T11:56:16;2.30;;;0.73;;
43807;SDS011;29438;50.664;10.098;2023-04-15T11:58:42;2.50;;;0.73;;
43807;SDS011;29438;50.664;10.098;2023-04-15T12:01:10;2.13;;;0.80;;
43807;SDS011;29438;50.664;10.098;2023-04-15T12:11:16;1.60;;;0.70;;
43807;SDS011;29438;50.664;10.098;2023-04-15T12:13:43;1.95;;;0.65;;
43807;SDS011;29438;50.664;10.098;2023-04-15T12:16:11;1.55;;;0.60;;
43807;SDS011;29438;50.664;10.098;2023-04-15T12:18:37;2.03;;;0.65;;
43807;SDS011;29438;50.664;10.098;2023-04-15T12:21:09;1.95;;;0.70;;
43807;SDS011;29438;50.664;10.098;2023-04-15T12:23:39;1.65;;;0.60;;
43807;SDS011;29438;50.664;10.098;2023-04-15T12:26:11;2.97;;;0.70;;
43807;SDS011;29438;50.664;10.098;2023-04-15T12:28:39;1.58;;;0.60;;
43807;SDS011;29438;50.664;10.098;2023-04-15T12:31:06;1.85;;;0.70;;
43807;SDS011;29438;50.664;10.098;2023-04-15T12:33:35;1.20;;;0.47;;
43807;SDS011;29438;50.664;10.098;2023-04-15T12:36:01;2.08;;;0.60;;
43807;SDS011;29438;50.664;10.098;2023-04-15T12:38:27;2.67;;;0.80;;
43807;SDS011;29438;50.664;10.098;2023-04-15T12:40:53;2.15;;;0.85;;
43807;SDS011;29438;50.664;10.098;2023-04-15T12:43:19;1.83;;;0.90;;
43807;SDS011;29438;50.664;10.098;2023-04-15T12:45:44;3.10;;;1.00;;
43807;SDS011;29438;50.664;10.098;2023-04-15T12:48:10;1.75;;;0.75;;
43807;SDS011;29438;50.664;10.098;2023-04-15T12:50:37;1.92;;;0.50;;
43807;SDS011;29438;50.664;10.098;2023-04-15T12:53:02;2.50;;;1.00;;
43807;SDS011;29438;50.664;10.098;2023-04-15T12:55:28;1.58;;;0.68;;
43807;SDS011;29438;50.664;10.098;2023-04-15T12:57:54;1.45;;;0.57;;
43807;SDS011;29438;50.664;10.098;2023-04-15T13:00:20;1.70;;;0.73;;
43807;SDS011;29438;50.664;10.098;2023-04-15T13:02:46;2.05;;;0.73;;
43807;SDS011;29438;50.664;10.098;2023-04-15T13:05:13;2.00;;;0.80;;
43807;SDS011;29438;50.664;10.098;2023-04-15T13:07:39;2.88;;;1.20;;
43807;SDS011;29438;50.664;10.098;2023-04-15T13:10:06;1.85;;;0.40;;
43807;SDS011;29438;50.664;10.098;2023-04-15T13:12:32;1.23;;;0.40;;
43807;SDS011;29438;50.664;10.098;2023-04-15T13:15:01;1.55;;;0.50;;
43807;SDS011;29438;50.664;10.098;2023-04-15T13:17:27;1.63;;;0.40;;
43807;SDS011;29438;50.664;10.098;2023-04-15T13:19:52;2.13;;;0.40;;
43807;SDS011;29438;50.664;10.098;2023-04-15T13:22:18;1.88;;;0.57;;
43807;SDS011;29438;50.664;10.098;2023-04-15T13:24:43;1.50;;;0.80;;
43807;SDS011;29438;50.664;10.098;2023-04-15T13:27:09;1.02;;;0.40;;
43807;SDS011;29438;50.664;10.098;2023-04-15T13:29:35;1.13;;;0.20;;
43807;SDS011;29438;50.664;10.098;2023-04-15T13:32:00;1.30;;;0.30;;
43807;SDS011;29438;50.664;10.098;2023-04-15T13:34:26;1.00;;;0.30;;
43807;SDS011;29438;50.664;10.098;2023-04-15T13:36:51;1.45;;;0.30;;
43807;SDS011;29438;50.664;10.098;2023-04-15T13:39:17;1.08;;;0.20;;
43807;SDS011;29438;50.664;10.098;2023-04-15T13:41:42;0.88;;;0.20;;
43807;SDS011;29438;50.664;10.098;2023-04-15T13:44:07;0.50;;;0.10;;
43807;SDS011;29438;50.664;10.098;2023-04-15T13:46:33;0.82;;;0.20;;
43807;SDS011;29438;50.664;10.098;2023-04-15T13:48:59;0.60;;;0.20;;
43807;SDS011;29438;50.664;10.098;2023-04-15T13:51:24;0.47;;;0.10;;
43807;SDS011;29438;50.664;10.098;2023-04-15T13:53:51;0.30;;;0.00;;
43807;SDS011;29438;50.664;10.098;2023-04-15T13:56:16;0.47;;;0.10;;
43807;SDS011;29438;50.664;10.098;2023-04-15T13:58:42;0.40;;;0.10;;
43807;SDS011;29438;50.664;10.098;2023-04-15T14:01:07;0.70;;;0.20;;
43807;SDS011;29438;50.664;10.098;2023-04-15T14:03:33;0.77;;;0.10;;
43807;SDS011;29438;50.664;10.098;2023-04-15T14:05:59;0.80;;;0.10;;
43807;SDS011;29438;50.664;10.098;2023-04-15T14:08:25;1.10;;;0.40;;
43807;SDS011;29438;50.664;10.098;2023-04-15T14:10:50;1.05;;;0.32;;
43807;SDS011;29438;50.664;10.098;2023-04-15T14:13:16;0.73;;;0.20;;
43807;SDS011;29438;50.664;10.098;2023-04-15T14:15:43;1.75;;;0.20;;
43807;SDS011;29438;50.664;10.098;2023-04-15T14:18:08;3.97;;;0.20;;
43807;SDS011;29438;50.664;10.098;2023-04-15T14:20:34;1.00;;;0.22;;
43807;SDS011;29438;50.664;10.098;2023-04-15T14:23:00;2.38;;;0.13;;
43807;SDS011;29438;50.664;10.098;2023-04-15T14:25:25;0.95;;;0.30;;
43807;SDS011;29438;50.664;10.098;2023-04-15T14:27:51;1.48;;;0.35;;
43807;SDS011;29438;50.664;10.098;2023-04-15T14:30:17;1.50;;;0.40;;
43807;SDS011;29438;50.664;10.098;2023-04-15T14:32:42;0.40;;;0.10;;
43807;SDS011;29438;50.664;10.098;2023-04-15T14:35:08;0.60;;;0.20;;
43807;SDS011;29438;50.664;10.098;2023-04-15T14:37:33;2.45;;;0.60;;
43807;SDS011;29438;50.664;10.098;2023-04-15T14:39:59;1.52;;;0.52;;
43807;SDS011;29438;50.664;10.098;2023-04-15T14:42:24;4.00;;;1.38;;
43807;SDS011;29438;50.664;10.098;2023-04-15T14:44:50;6.43;;;1.90;;
43807;SDS011;29438;50.664;10.098;2023-04-15T14:47:15;6.40;;;2.03;;
43807;SDS011;29438;50.664;10.098;2023-04-15T14:49:41;1.70;;;0.43;;
43807;SDS011;29438;50.664;10.098;2023-04-15T14:52:07;7.45;;;2.20;;